sensor_id;sensor_type;location;lat;lon;timestamp;P1;durP1;ratioP1;P2;durP2;ratioP2
38034;SDS011;23841;48.524;1.342;2022-12-10T00:01:09;16.67;;;9.20;;
38034;SDS011;23841;48.524;1.342;2022-12-10T00:03:35;14.65;;;8.20;;
38034;SDS011;23841;48.524;1.342;2022-12-10T00:06:01;14.15;;;8.48;;
38034;SDS011;23841;48.524;1.342;2022-12-10T00:08:27;16.05;;;8.88;;
38034;SDS011;23841;48.524;1.342;2022-12-10T00:10:52;14.10;;;8.13;;
38034;SDS011;23841;48.524;1.342;2022-12-10T00:13:17;15.32;;;9.30;;
38034;SDS011;23841;48.524;1.342;2022-12-10T00:15:44;14.70;;;8.35;;
38034;SDS011;23841;48.524;1.342;2022-12-10T00:18:09;13.43;;;7.25;;
38034;SDS011;23841;48.524;1.342;2022-12-10T00:20:35;14.27;;;7.32;;
38034;SDS011;23841;48.524;1.342;2022-12-10T00:23:01;14.80;;;8.20;;
38034;SDS011;23841;48.524;1.342;2022-12-10T00:25:26;16.40;;;7.90;;
38034;SDS011;23841;48.524;1.342;2022-12-10T00:27:51;14.45;;;8.23;;
38034;SDS011;23841;48.524;1.342;2022-12-10T00:30:17;13.88;;;8.38;;
38034;SDS011;23841;48.524;1.342;2022-12-10T00:32:42;14.25;;;8.43;;
38034;SDS011;23841;48.524;1.342;2022-12-10T00:35:07;13.82;;;7.53;;
38034;SDS011;23841;48.524;1.342;2022-12-10T00:37:33;12.88;;;7.57;;
38034;SDS011;23841;48.524;1.342;2022-12-10T00:39:58;13.13;;;7.38;;
38034;SDS011;23841;48.524;1.342;2022-12-10T00:42:24;11.73;;;6.43;;
38034;SDS011;23841;48.524;1.342;2022-12-10T00:44:50;14.82;;;8.48;;
38034;SDS011;23841;48.524;1.342;2022-12-10T00:47:15;15.35;;;7.97;;
38034;SDS011;23841;48.524;1.342;2022-12-10T00:49:40;13.52;;;7.78;;
38034;SDS011;23841;48.524;1.342;2022-12-10T00:52:05;15.30;;;8.18;;
38034;SDS011;23841;48.524;1.342;2022-12-10T00:54:31;15.40;;;7.85;;
38034;SDS011;23841;48.524;1.342;2022-12-10T00:56:56;17.10;;;9.57;;
38034;SDS011;23841;48.524;1.342;2022-12-10T00:59:21;13.95;;;7.85;;
38034;SDS011;23841;48.524;1.342;2022-12-10T01:01:46;16.63;;;8.57;;
38034;SDS011;23841;48.524;1.342;2022-12-10T01:04:13;16.35;;;8.90;;
38034;SDS011;23841;48.524;1.342;2022-12-10T01:06:43;16.13;;;8.75;;
38034;SDS011;23841;48.524;1.342;2022-12-10T01:09:10;17.60;;;9.20;;
38034;SDS011;23841;48.524;1.342;2022-12-10T01:11:37;16.23;;;9.43;;
38034;SDS011;23841;48.524;1.342;2022-12-10T01:14:03;16.58;;;9.15;;
38034;SDS011;23841;48.524;1.342;2022-12-10T01:16:28;17.23;;;8.98;;
38034;SDS011;23841;48.524;1.342;2022-12-10T01:18:54;17.55;;;8.95;;
38034;SDS011;23841;48.524;1.342;2022-12-10T01:21:20;16.05;;;9.32;;
38034;SDS011;23841;48.524;1.342;2022-12-10T01:23:46;16.98;;;8.65;;
38034;SDS011;23841;48.524;1.342;2022-12-10T01:26:14;19.00;;;9.75;;
38034;SDS011;23841;48.524;1.342;2022-12-10T01:28:40;18.17;;;9.23;;
38034;SDS011;23841;48.524;1.342;2022-12-10T01:31:07;19.08;;;9.57;;
38034;SDS011;23841;48.524;1.342;2022-12-10T01:33:33;18.50;;;10.02;;
38034;SDS011;23841;48.524;1.342;2022-12-10T01:36:05;20.60;;;10.32;;
38034;SDS011;23841;48.524;1.342;2022-12-10T01:38:31;18.15;;;9.10;;
38034;SDS011;23841;48.524;1.342;2022-12-10T01:40:57;22.38;;;10.73;;
38034;SDS011;23841;48.524;1.342;2022-12-10T01:43:23;19.27;;;10.43;;
38034;SDS011;23841;48.524;1.342;2022-12-10T01:45:48;19.85;;;10.35;;
38034;SDS011;23841;48.524;1.342;2022-12-10T01:48:13;17.83;;;8.65;;
38034;SDS011;23841;48.524;1.342;2022-12-10T01:50:39;19.85;;;10.15;;
38034;SDS011;23841;48.524;1.342;2022-12-10T01:53:05;18.73;;;9.48;;
38034;SDS011;23841;48.524;1.342;2022-12-10T01:55:36;18.42;;;9.38;;
38034;SDS011;23841;48.524;1.342;2022-12-10T01:58:02;17.77;;;8.88;;
38034;SDS011;23841;48.524;1.342;2022-12-10T02:00:27;19.75;;;9.40;;
38034;SDS011;23841;48.524;1.342;2022-12-10T02:02:57;15.25;;;8.30;;
38034;SDS011;23841;48.524;1.342;2022-12-10T02:07:55;19.90;;;10.32;;
38034;SDS011;23841;48.524;1.342;2022-12-10T02:12:49;18.80;;;8.80;;
38034;SDS011;23841;48.524;1.342;2022-12-10T02:15:26;19.45;;;10.02;;
38034;SDS011;23841;48.524;1.342;2022-12-10T02:18:12;17.67;;;8.70;;
38034;SDS011;23841;48.524;1.342;2022-12-10T02:23:24;18.58;;;9.07;;
38034;SDS011;23841;48.524;1.342;2022-12-10T02:25:59;18.77;;;9.70;;
38034;SDS011;23841;48.524;1.342;2022-12-10T02:31:25;17.02;;;9.30;;
38034;SDS011;23841;48.524;1.342;2022-12-10T02:33:53;15.82;;;8.10;;
38034;SDS011;23841;48.524;1.342;2022-12-10T02:36:19;15.07;;;7.68;;
38034;SDS011;23841;48.524;1.342;2022-12-10T02:38:45;16.83;;;8.27;;
38034;SDS011;23841;48.524;1.342;2022-12-10T02:41:20;18.42;;;8.73;;
38034;SDS011;23841;48.524;1.342;2022-12-10T02:43:47;15.18;;;8.02;;
38034;SDS011;23841;48.524;1.342;2022-12-10T02:46:14;15.90;;;8.63;;
38034;SDS011;23841;48.524;1.342;2022-12-10T02:48:41;17.42;;;8.85;;
38034;SDS011;23841;48.524;1.342;2022-12-10T02:51:07;13.60;;;7.47;;
38034;SDS011;23841;48.524;1.342;2022-12-10T02:53:40;16.10;;;8.23;;
38034;SDS011;23841;48.524;1.342;2022-12-10T02:56:24;14.90;;;7.95;;
38034;SDS011;23841;48.524;1.342;2022-12-10T02:58:58;14.20;;;7.40;;
38034;SDS011;23841;48.524;1.342;2022-12-10T03:03:53;13.07;;;7.43;;
38034;SDS011;23841;48.524;1.342;2022-12-10T03:06:27;13.90;;;7.25;;
38034;SDS011;23841;48.524;1.342;2022-12-10T03:09:03;17.00;;;8.77;;
38034;SDS011;23841;48.524;1.342;2022-12-10T03:11:30;15.25;;;7.95;;
38034;SDS011;23841;48.524;1.342;2022-12-10T03:14:13;12.77;;;7.13;;
38034;SDS011;23841;48.524;1.342;2022-12-10T03:16:40;13.20;;;6.90;;
38034;SDS011;23841;48.524;1.342;2022-12-10T03:19:16;13.50;;;6.63;;
38034;SDS011;23841;48.524;1.342;2022-12-10T03:21:42;13.38;;;7.15;;
38034;SDS011;23841;48.524;1.342;2022-12-10T03:24:09;11.90;;;6.63;;
38034;SDS011;23841;48.524;1.342;2022-12-10T03:26:35;12.30;;;6.68;;
38034;SDS011;23841;48.524;1.342;2022-12-10T03:29:05;12.65;;;7.15;;
38034;SDS011;23841;48.524;1.342;2022-12-10T03:31:31;13.63;;;7.30;;
38034;SDS011;23841;48.524;1.342;2022-12-10T03:33:58;12.32;;;6.20;;
38034;SDS011;23841;48.524;1.342;2022-12-10T03:36:24;10.02;;;5.68;;
38034;SDS011;23841;48.524;1.342;2022-12-10T03:38:50;10.65;;;5.60;;
38034;SDS011;23841;48.524;1.342;2022-12-10T03:41:16;11.50;;;6.00;;
38034;SDS011;23841;48.524;1.342;2022-12-10T03:43:54;10.18;;;5.28;;
38034;SDS011;23841;48.524;1.342;2022-12-10T03:46:20;10.57;;;5.50;;
38034;SDS011;23841;48.524;1.342;2022-12-10T03:48:46;10.00;;;5.22;;
38034;SDS011;23841;48.524;1.342;2022-12-10T03:51:11;9.25;;;5.20;;
38034;SDS011;23841;48.524;1.342;2022-12-10T03:53:36;8.50;;;4.53;;
38034;SDS011;23841;48.524;1.342;2022-12-10T03:56:01;8.70;;;4.70;;
38034;SDS011;23841;48.524;1.342;2022-12-10T03:58:27;8.02;;;4.38;;
38034;SDS011;23841;48.524;1.342;2022-12-10T04:00:52;8.18;;;4.60;;
38034;SDS011;23841;48.524;1.342;2022-12-10T04:03:17;9.68;;;4.78;;
38034;SDS011;23841;48.524;1.342;2022-12-10T04:05:43;9.15;;;4.97;;
38034;SDS011;23841;48.524;1.342;2022-12-10T04:08:08;9.02;;;4.63;;
38034;SDS011;23841;48.524;1.342;2022-12-10T04:10:37;8.90;;;4.60;;
38034;SDS011;23841;48.524;1.342;2022-12-10T04:13:02;8.80;;;4.38;;
38034;SDS011;23841;48.524;1.342;2022-12-10T04:15:46;10.07;;;4.80;;
38034;SDS011;23841;48.524;1.342;2022-12-10T04:18:30;9.68;;;4.80;;
38034;SDS011;23841;48.524;1.342;2022-12-10T04:20:55;9.35;;;4.57;;
38034;SDS011;23841;48.524;1.342;2022-12-10T04:23:39;10.40;;;5.63;;
38034;SDS011;23841;48.524;1.342;2022-12-10T04:26:23;9.55;;;4.78;;
38034;SDS011;23841;48.524;1.342;2022-12-10T04:29:07;10.57;;;5.70;;
38034;SDS011;23841;48.524;1.342;2022-12-10T04:31:32;9.98;;;5.22;;
38034;SDS011;23841;48.524;1.342;2022-12-10T04:33:57;8.63;;;4.70;;
38034;SDS011;23841;48.524;1.342;2022-12-10T04:36:23;9.43;;;4.75;;
38034;SDS011;23841;48.524;1.342;2022-12-10T04:38:48;8.18;;;4.45;;
38034;SDS011;23841;48.524;1.342;2022-12-10T04:41:13;9.48;;;4.80;;
38034;SDS011;23841;48.524;1.342;2022-12-10T04:43:40;10.05;;;4.60;;
38034;SDS011;23841;48.524;1.342;2022-12-10T04:46:06;8.82;;;4.78;;
38034;SDS011;23841;48.524;1.342;2022-12-10T04:48:31;9.40;;;5.15;;
38034;SDS011;23841;48.524;1.342;2022-12-10T04:50:56;8.70;;;4.13;;
38034;SDS011;23841;48.524;1.342;2022-12-10T04:53:21;7.07;;;4.30;;
38034;SDS011;23841;48.524;1.342;2022-12-10T04:55:47;8.73;;;4.68;;
38034;SDS011;23841;48.524;1.342;2022-12-10T04:58:12;8.02;;;4.50;;
38034;SDS011;23841;48.524;1.342;2022-12-10T05:00:38;7.18;;;4.05;;
38034;SDS011;23841;48.524;1.342;2022-12-10T05:03:03;6.35;;;3.80;;
38034;SDS011;23841;48.524;1.342;2022-12-10T05:05:28;8.10;;;4.25;;
38034;SDS011;23841;48.524;1.342;2022-12-10T05:07:53;8.10;;;4.32;;
38034;SDS011;23841;48.524;1.342;2022-12-10T05:10:19;8.10;;;4.22;;
38034;SDS011;23841;48.524;1.342;2022-12-10T05:12:44;9.75;;;4.53;;
38034;SDS011;23841;48.524;1.342;2022-12-10T05:15:09;7.35;;;4.07;;
38034;SDS011;23841;48.524;1.342;2022-12-10T05:17:35;7.72;;;4.47;;
38034;SDS011;23841;48.524;1.342;2022-12-10T05:20:00;8.13;;;3.88;;
38034;SDS011;23841;48.524;1.342;2022-12-10T05:22:25;7.88;;;4.00;;
38034;SDS011;23841;48.524;1.342;2022-12-10T05:25:09;7.50;;;3.72;;
38034;SDS011;23841;48.524;1.342;2022-12-10T05:27:34;6.20;;;3.53;;
38034;SDS011;23841;48.524;1.342;2022-12-10T05:29:59;8.07;;;3.95;;
38034;SDS011;23841;48.524;1.342;2022-12-10T05:32:25;8.65;;;4.28;;
38034;SDS011;23841;48.524;1.342;2022-12-10T05:34:50;6.90;;;3.65;;
38034;SDS011;23841;48.524;1.342;2022-12-10T05:37:15;6.90;;;3.60;;
38034;SDS011;23841;48.524;1.342;2022-12-10T05:39:40;6.00;;;3.42;;
38034;SDS011;23841;48.524;1.342;2022-12-10T05:42:06;6.50;;;3.50;;
38034;SDS011;23841;48.524;1.342;2022-12-10T05:44:31;8.10;;;3.70;;
38034;SDS011;23841;48.524;1.342;2022-12-10T05:46:56;7.20;;;3.75;;
38034;SDS011;23841;48.524;1.342;2022-12-10T05:49:22;6.28;;;3.03;;
38034;SDS011;23841;48.524;1.342;2022-12-10T05:51:47;7.07;;;3.53;;
38034;SDS011;23841;48.524;1.342;2022-12-10T05:54:12;5.80;;;3.20;;
38034;SDS011;23841;48.524;1.342;2022-12-10T05:56:37;6.00;;;3.10;;
38034;SDS011;23841;48.524;1.342;2022-12-10T05:59:03;6.60;;;3.75;;
38034;SDS011;23841;48.524;1.342;2022-12-10T06:01:32;7.68;;;3.75;;
38034;SDS011;23841;48.524;1.342;2022-12-10T06:04:00;6.43;;;3.20;;
38034;SDS011;23841;48.524;1.342;2022-12-10T06:06:29;6.25;;;3.60;;
38034;SDS011;23841;48.524;1.342;2022-12-10T06:08:54;7.45;;;3.70;;
38034;SDS011;23841;48.524;1.342;2022-12-10T06:11:20;5.82;;;3.03;;
38034;SDS011;23841;48.524;1.342;2022-12-10T06:13:45;6.90;;;3.60;;
38034;SDS011;23841;48.524;1.342;2022-12-10T06:16:12;7.03;;;3.15;;
38034;SDS011;23841;48.524;1.342;2022-12-10T06:18:37;7.03;;;3.90;;
38034;SDS011;23841;48.524;1.342;2022-12-10T06:21:03;6.45;;;3.28;;
38034;SDS011;23841;48.524;1.342;2022-12-10T06:23:30;7.00;;;3.85;;
38034;SDS011;23841;48.524;1.342;2022-12-10T06:25:55;7.22;;;3.83;;
38034;SDS011;23841;48.524;1.342;2022-12-10T06:28:21;6.95;;;3.75;;
38034;SDS011;23841;48.524;1.342;2022-12-10T06:30:46;6.90;;;3.83;;
38034;SDS011;23841;48.524;1.342;2022-12-10T06:33:11;8.18;;;3.75;;
38034;SDS011;23841;48.524;1.342;2022-12-10T06:35:37;7.15;;;4.03;;
38034;SDS011;23841;48.524;1.342;2022-12-10T06:38:02;7.38;;;3.72;;
38034;SDS011;23841;48.524;1.342;2022-12-10T06:40:28;8.27;;;3.90;;
38034;SDS011;23841;48.524;1.342;2022-12-10T06:42:53;8.13;;;4.10;;
38034;SDS011;23841;48.524;1.342;2022-12-10T06:45:18;7.72;;;4.13;;
38034;SDS011;23841;48.524;1.342;2022-12-10T06:47:43;7.40;;;3.67;;
38034;SDS011;23841;48.524;1.342;2022-12-10T06:50:09;7.30;;;3.65;;
38034;SDS011;23841;48.524;1.342;2022-12-10T06:52:34;6.82;;;3.38;;
38034;SDS011;23841;48.524;1.342;2022-12-10T06:54:59;5.63;;;3.08;;
38034;SDS011;23841;48.524;1.342;2022-12-10T06:57:25;8.10;;;4.05;;
38034;SDS011;23841;48.524;1.342;2022-12-10T06:59:50;7.72;;;3.58;;
38034;SDS011;23841;48.524;1.342;2022-12-10T07:02:15;8.85;;;3.83;;
38034;SDS011;23841;48.524;1.342;2022-12-10T07:04:40;7.63;;;3.80;;
38034;SDS011;23841;48.524;1.342;2022-12-10T07:07:06;7.95;;;4.38;;
38034;SDS011;23841;48.524;1.342;2022-12-10T07:09:32;7.63;;;3.90;;
38034;SDS011;23841;48.524;1.342;2022-12-10T07:11:57;8.68;;;3.72;;
38034;SDS011;23841;48.524;1.342;2022-12-10T07:14:22;8.95;;;4.38;;
38034;SDS011;23841;48.524;1.342;2022-12-10T07:16:48;8.82;;;4.35;;
38034;SDS011;23841;48.524;1.342;2022-12-10T07:19:13;9.07;;;4.00;;
38034;SDS011;23841;48.524;1.342;2022-12-10T07:21:42;9.02;;;4.50;;
38034;SDS011;23841;48.524;1.342;2022-12-10T07:24:09;9.07;;;4.43;;
38034;SDS011;23841;48.524;1.342;2022-12-10T07:26:36;9.25;;;4.47;;
38034;SDS011;23841;48.524;1.342;2022-12-10T07:29:02;8.93;;;4.47;;
38034;SDS011;23841;48.524;1.342;2022-12-10T07:31:29;10.63;;;4.35;;
38034;SDS011;23841;48.524;1.342;2022-12-10T07:33:56;12.07;;;4.35;;
38034;SDS011;23841;48.524;1.342;2022-12-10T07:36:22;10.75;;;4.72;;
38034;SDS011;23841;48.524;1.342;2022-12-10T07:38:48;9.07;;;4.25;;
38034;SDS011;23841;48.524;1.342;2022-12-10T07:41:14;8.90;;;4.22;;
38034;SDS011;23841;48.524;1.342;2022-12-10T07:43:40;9.65;;;4.47;;
38034;SDS011;23841;48.524;1.342;2022-12-10T07:46:07;11.23;;;4.75;;
38034;SDS011;23841;48.524;1.342;2022-12-10T07:48:36;9.80;;;4.53;;
38034;SDS011;23841;48.524;1.342;2022-12-10T07:51:01;13.32;;;4.28;;
38034;SDS011;23841;48.524;1.342;2022-12-10T07:53:27;11.68;;;4.88;;
38034;SDS011;23841;48.524;1.342;2022-12-10T07:55:52;13.95;;;4.85;;
38034;SDS011;23841;48.524;1.342;2022-12-10T07:58:17;18.48;;;5.63;;
38034;SDS011;23841;48.524;1.342;2022-12-10T08:00:43;15.18;;;5.65;;
38034;SDS011;23841;48.524;1.342;2022-12-10T08:03:08;16.63;;;5.45;;
38034;SDS011;23841;48.524;1.342;2022-12-10T08:05:33;18.80;;;4.95;;
38034;SDS011;23841;48.524;1.342;2022-12-10T08:07:59;18.77;;;4.82;;
38034;SDS011;23841;48.524;1.342;2022-12-10T08:10:24;10.90;;;4.88;;
38034;SDS011;23841;48.524;1.342;2022-12-10T08:12:49;13.63;;;5.05;;
38034;SDS011;23841;48.524;1.342;2022-12-10T08:15:14;19.40;;;5.15;;
38034;SDS011;23841;48.524;1.342;2022-12-10T08:17:40;18.23;;;4.82;;
38034;SDS011;23841;48.524;1.342;2022-12-10T08:20:05;17.00;;;5.05;;
38034;SDS011;23841;48.524;1.342;2022-12-10T08:22:30;10.80;;;4.18;;
38034;SDS011;23841;48.524;1.342;2022-12-10T08:24:56;14.32;;;4.10;;
38034;SDS011;23841;48.524;1.342;2022-12-10T08:27:21;21.83;;;5.05;;
38034;SDS011;23841;48.524;1.342;2022-12-10T08:29:46;11.13;;;3.67;;
38034;SDS011;23841;48.524;1.342;2022-12-10T08:32:12;11.68;;;3.97;;
38034;SDS011;23841;48.524;1.342;2022-12-10T08:34:37;9.70;;;4.10;;
38034;SDS011;23841;48.524;1.342;2022-12-10T08:37:03;16.73;;;5.28;;
38034;SDS011;23841;48.524;1.342;2022-12-10T08:39:28;11.20;;;3.97;;
38034;SDS011;23841;48.524;1.342;2022-12-10T08:41:53;8.30;;;3.25;;
38034;SDS011;23841;48.524;1.342;2022-12-10T08:44:19;12.15;;;4.07;;
38034;SDS011;23841;48.524;1.342;2022-12-10T08:46:44;10.40;;;3.88;;
38034;SDS011;23841;48.524;1.342;2022-12-10T08:49:09;12.45;;;5.07;;
38034;SDS011;23841;48.524;1.342;2022-12-10T08:51:35;8.52;;;3.88;;
38034;SDS011;23841;48.524;1.342;2022-12-10T08:54:00;8.82;;;3.60;;
38034;SDS011;23841;48.524;1.342;2022-12-10T08:56:25;11.20;;;4.22;;
38034;SDS011;23841;48.524;1.342;2022-12-10T08:58:51;10.38;;;3.83;;
38034;SDS011;23841;48.524;1.342;2022-12-10T09:01:17;7.25;;;3.60;;
38034;SDS011;23841;48.524;1.342;2022-12-10T09:03:42;8.93;;;3.78;;
38034;SDS011;23841;48.524;1.342;2022-12-10T09:06:12;7.93;;;3.42;;
38034;SDS011;23841;48.524;1.342;2022-12-10T09:08:37;8.65;;;3.83;;
38034;SDS011;23841;48.524;1.342;2022-12-10T09:11:06;8.98;;;4.60;;
38034;SDS011;23841;48.524;1.342;2022-12-10T09:13:32;7.53;;;4.20;;
38034;SDS011;23841;48.524;1.342;2022-12-10T09:15:57;9.90;;;4.65;;
38034;SDS011;23841;48.524;1.342;2022-12-10T09:18:23;9.68;;;4.53;;
38034;SDS011;23841;48.524;1.342;2022-12-10T09:20:48;8.35;;;4.53;;
38034;SDS011;23841;48.524;1.342;2022-12-10T09:23:13;8.55;;;4.05;;
38034;SDS011;23841;48.524;1.342;2022-12-10T09:25:38;11.18;;;4.65;;
38034;SDS011;23841;48.524;1.342;2022-12-10T09:28:04;7.63;;;3.85;;
38034;SDS011;23841;48.524;1.342;2022-12-10T09:30:29;8.98;;;4.60;;
38034;SDS011;23841;48.524;1.342;2022-12-10T09:32:54;10.48;;;5.18;;
38034;SDS011;23841;48.524;1.342;2022-12-10T09:35:20;8.13;;;4.47;;
38034;SDS011;23841;48.524;1.342;2022-12-10T09:37:45;15.60;;;4.95;;
38034;SDS011;23841;48.524;1.342;2022-12-10T09:40:17;14.73;;;4.65;;
38034;SDS011;23841;48.524;1.342;2022-12-10T09:48:05;49.88;;;9.57;;
38034;SDS011;23841;48.524;1.342;2022-12-10T09:50:52;17.15;;;4.75;;
38034;SDS011;23841;48.524;1.342;2022-12-10T09:53:20;14.30;;;5.85;;
38034;SDS011;23841;48.524;1.342;2022-12-10T09:55:46;8.95;;;4.43;;
38034;SDS011;23841;48.524;1.342;2022-12-10T09:58:20;15.05;;;4.90;;
38034;SDS011;23841;48.524;1.342;2022-12-10T10:03:40;15.70;;;4.43;;
38034;SDS011;23841;48.524;1.342;2022-12-10T10:06:06;10.38;;;4.20;;
38034;SDS011;23841;48.524;1.342;2022-12-10T10:08:41;9.98;;;4.53;;
38034;SDS011;23841;48.524;1.342;2022-12-10T10:11:24;10.20;;;4.22;;
38034;SDS011;23841;48.524;1.342;2022-12-10T10:13:53;9.02;;;4.18;;
38034;SDS011;23841;48.524;1.342;2022-12-10T10:16:23;19.42;;;4.90;;
38034;SDS011;23841;48.524;1.342;2022-12-10T10:21:39;10.23;;;4.30;;
38034;SDS011;23841;48.524;1.342;2022-12-10T10:24:05;12.30;;;4.60;;
38034;SDS011;23841;48.524;1.342;2022-12-10T10:26:31;16.70;;;6.13;;
38034;SDS011;23841;48.524;1.342;2022-12-10T10:28:58;14.00;;;4.57;;
38034;SDS011;23841;48.524;1.342;2022-12-10T10:31:26;10.18;;;5.65;;
38034;SDS011;23841;48.524;1.342;2022-12-10T10:33:55;16.27;;;4.80;;
38034;SDS011;23841;48.524;1.342;2022-12-10T10:36:35;16.58;;;4.75;;
38034;SDS011;23841;48.524;1.342;2022-12-10T10:39:07;13.50;;;4.63;;
38034;SDS011;23841;48.524;1.342;2022-12-10T10:41:36;11.50;;;5.35;;
38034;SDS011;23841;48.524;1.342;2022-12-10T10:44:06;9.73;;;5.00;;
38034;SDS011;23841;48.524;1.342;2022-12-10T10:46:37;14.63;;;5.43;;
38034;SDS011;23841;48.524;1.342;2022-12-10T10:49:14;11.23;;;4.85;;
38034;SDS011;23841;48.524;1.342;2022-12-10T10:51:43;10.23;;;4.65;;
38034;SDS011;23841;48.524;1.342;2022-12-10T10:54:09;12.20;;;4.90;;
38034;SDS011;23841;48.524;1.342;2022-12-10T10:56:41;22.23;;;5.13;;
38034;SDS011;23841;48.524;1.342;2022-12-10T11:01:54;19.05;;;5.18;;
38034;SDS011;23841;48.524;1.342;2022-12-10T11:04:28;10.57;;;4.75;;
38034;SDS011;23841;48.524;1.342;2022-12-10T11:06:55;9.25;;;4.88;;
38034;SDS011;23841;48.524;1.342;2022-12-10T11:09:24;22.52;;;5.85;;
38034;SDS011;23841;48.524;1.342;2022-12-10T11:12:06;15.65;;;5.25;;
38034;SDS011;23841;48.524;1.342;2022-12-10T11:14:33;19.40;;;5.07;;
38034;SDS011;23841;48.524;1.342;2022-12-10T11:17:03;10.55;;;4.75;;
38034;SDS011;23841;48.524;1.342;2022-12-10T11:19:44;14.13;;;5.55;;
38034;SDS011;23841;48.524;1.342;2022-12-10T11:22:30;12.55;;;4.90;;
38034;SDS011;23841;48.524;1.342;2022-12-10T11:24:56;10.77;;;4.53;;
38034;SDS011;23841;48.524;1.342;2022-12-10T11:27:30;11.20;;;5.03;;
38034;SDS011;23841;48.524;1.342;2022-12-10T11:30:08;11.93;;;5.30;;
38034;SDS011;23841;48.524;1.342;2022-12-10T11:35:17;11.60;;;4.82;;
38034;SDS011;23841;48.524;1.342;2022-12-10T11:51:08;7.78;;;3.97;;
38034;SDS011;23841;48.524;1.342;2022-12-10T11:57:03;8.85;;;4.22;;
38034;SDS011;23841;48.524;1.342;2022-12-10T12:09:59;8.38;;;4.35;;
38034;SDS011;23841;48.524;1.342;2022-12-10T12:12:36;8.98;;;4.20;;
38034;SDS011;23841;48.524;1.342;2022-12-10T12:15:19;7.57;;;3.72;;
38034;SDS011;23841;48.524;1.342;2022-12-10T12:17:51;8.65;;;4.20;;
38034;SDS011;23841;48.524;1.342;2022-12-10T12:20:24;8.13;;;3.88;;
38034;SDS011;23841;48.524;1.342;2022-12-10T12:22:58;7.57;;;4.20;;
38034;SDS011;23841;48.524;1.342;2022-12-10T12:30:41;7.65;;;3.88;;
38034;SDS011;23841;48.524;1.342;2022-12-10T12:38:10;8.77;;;4.03;;
38034;SDS011;23841;48.524;1.342;2022-12-10T12:40:41;11.60;;;4.63;;
38034;SDS011;23841;48.524;1.342;2022-12-10T12:43:09;9.25;;;4.00;;
38034;SDS011;23841;48.524;1.342;2022-12-10T12:45:38;9.25;;;4.05;;
38034;SDS011;23841;48.524;1.342;2022-12-10T12:53:04;9.63;;;4.90;;
38034;SDS011;23841;48.524;1.342;2022-12-10T13:00:36;7.72;;;4.18;;
38034;SDS011;23841;48.524;1.342;2022-12-10T13:05:32;9.95;;;4.85;;
38034;SDS011;23841;48.524;1.342;2022-12-10T13:10:45;7.80;;;3.90;;
38034;SDS011;23841;48.524;1.342;2022-12-10T13:15:49;8.40;;;4.40;;
38034;SDS011;23841;48.524;1.342;2022-12-10T13:31:08;8.05;;;4.13;;
38034;SDS011;23841;48.524;1.342;2022-12-10T13:36:09;8.85;;;3.50;;
38034;SDS011;23841;48.524;1.342;2022-12-10T13:38:38;6.85;;;3.58;;
38034;SDS011;23841;48.524;1.342;2022-12-10T13:41:05;7.28;;;3.70;;
38034;SDS011;23841;48.524;1.342;2022-12-10T13:43:53;8.40;;;4.07;;
38034;SDS011;23841;48.524;1.342;2022-12-10T13:49:18;7.95;;;3.78;;
38034;SDS011;23841;48.524;1.342;2022-12-10T13:52:03;7.20;;;3.80;;
38034;SDS011;23841;48.524;1.342;2022-12-10T14:02:31;8.48;;;3.90;;
38034;SDS011;23841;48.524;1.342;2022-12-10T14:05:09;6.85;;;3.40;;
38034;SDS011;23841;48.524;1.342;2022-12-10T14:07:39;8.07;;;3.65;;
38034;SDS011;23841;48.524;1.342;2022-12-10T14:10:09;10.35;;;4.05;;
38034;SDS011;23841;48.524;1.342;2022-12-10T14:12:38;7.07;;;3.63;;
38034;SDS011;23841;48.524;1.342;2022-12-10T14:15:06;7.57;;;3.95;;
38034;SDS011;23841;48.524;1.342;2022-12-10T14:17:39;8.10;;;4.13;;
38034;SDS011;23841;48.524;1.342;2022-12-10T14:20:07;8.43;;;4.10;;
38034;SDS011;23841;48.524;1.342;2022-12-10T14:22:49;6.65;;;3.60;;
38034;SDS011;23841;48.524;1.342;2022-12-10T14:25:15;8.32;;;3.42;;
38034;SDS011;23841;48.524;1.342;2022-12-10T14:27:42;9.57;;;3.85;;
38034;SDS011;23841;48.524;1.342;2022-12-10T14:30:19;7.30;;;3.75;;
38034;SDS011;23841;48.524;1.342;2022-12-10T14:32:45;7.75;;;3.42;;
38034;SDS011;23841;48.524;1.342;2022-12-10T14:35:12;8.18;;;3.60;;
38034;SDS011;23841;48.524;1.342;2022-12-10T14:37:39;7.15;;;3.63;;
38034;SDS011;23841;48.524;1.342;2022-12-10T14:40:07;8.85;;;4.32;;
38034;SDS011;23841;48.524;1.342;2022-12-10T14:42:33;8.23;;;4.43;;
38034;SDS011;23841;48.524;1.342;2022-12-10T14:44:59;7.45;;;4.00;;
38034;SDS011;23841;48.524;1.342;2022-12-10T14:47:25;8.05;;;4.60;;
38034;SDS011;23841;48.524;1.342;2022-12-10T14:49:51;8.23;;;3.80;;
38034;SDS011;23841;48.524;1.342;2022-12-10T14:52:18;12.45;;;4.10;;
38034;SDS011;23841;48.524;1.342;2022-12-10T14:54:43;8.70;;;4.50;;
38034;SDS011;23841;48.524;1.342;2022-12-10T14:57:11;8.38;;;4.72;;
38034;SDS011;23841;48.524;1.342;2022-12-10T14:59:40;7.00;;;4.13;;
38034;SDS011;23841;48.524;1.342;2022-12-10T15:05:02;6.78;;;3.90;;
38034;SDS011;23841;48.524;1.342;2022-12-10T15:07:31;7.65;;;4.20;;
38034;SDS011;23841;48.524;1.342;2022-12-10T15:10:00;7.22;;;4.00;;
38034;SDS011;23841;48.524;1.342;2022-12-10T15:14:52;8.68;;;4.95;;
38034;SDS011;23841;48.524;1.342;2022-12-10T15:17:35;9.48;;;4.40;;
38034;SDS011;23841;48.524;1.342;2022-12-10T15:20:00;6.95;;;3.88;;
38034;SDS011;23841;48.524;1.342;2022-12-10T15:22:26;9.02;;;5.03;;
38034;SDS011;23841;48.524;1.342;2022-12-10T15:24:52;8.85;;;4.38;;
38034;SDS011;23841;48.524;1.342;2022-12-10T15:27:18;7.22;;;4.10;;
38034;SDS011;23841;48.524;1.342;2022-12-10T15:29:44;8.50;;;4.50;;
38034;SDS011;23841;48.524;1.342;2022-12-10T15:32:13;12.20;;;4.05;;
38034;SDS011;23841;48.524;1.342;2022-12-10T15:34:48;7.35;;;4.30;;
38034;SDS011;23841;48.524;1.342;2022-12-10T15:37:18;9.68;;;4.32;;
38034;SDS011;23841;48.524;1.342;2022-12-10T15:39:45;6.88;;;4.13;;
38034;SDS011;23841;48.524;1.342;2022-12-10T15:44:56;10.20;;;4.03;;
38034;SDS011;23841;48.524;1.342;2022-12-10T15:47:22;7.90;;;3.97;;
38034;SDS011;23841;48.524;1.342;2022-12-10T15:49:48;6.68;;;3.75;;
38034;SDS011;23841;48.524;1.342;2022-12-10T15:52:21;9.35;;;4.13;;
38034;SDS011;23841;48.524;1.342;2022-12-10T15:54:48;10.00;;;4.70;;
38034;SDS011;23841;48.524;1.342;2022-12-10T15:57:18;8.68;;;4.30;;
38034;SDS011;23841;48.524;1.342;2022-12-10T15:59:44;8.30;;;4.43;;
38034;SDS011;23841;48.524;1.342;2022-12-10T16:02:14;10.93;;;4.63;;
38034;SDS011;23841;48.524;1.342;2022-12-10T16:04:44;9.68;;;4.65;;
38034;SDS011;23841;48.524;1.342;2022-12-10T16:07:09;9.75;;;4.95;;
38034;SDS011;23841;48.524;1.342;2022-12-10T16:09:34;7.95;;;4.68;;
38034;SDS011;23841;48.524;1.342;2022-12-10T16:11:59;10.93;;;4.75;;
38034;SDS011;23841;48.524;1.342;2022-12-10T16:14:25;8.65;;;4.85;;
38034;SDS011;23841;48.524;1.342;2022-12-10T16:16:50;9.30;;;5.00;;
38034;SDS011;23841;48.524;1.342;2022-12-10T16:19:15;11.00;;;5.75;;
38034;SDS011;23841;48.524;1.342;2022-12-10T16:21:40;10.18;;;5.68;;
38034;SDS011;23841;48.524;1.342;2022-12-10T16:24:06;11.43;;;5.45;;
38034;SDS011;23841;48.524;1.342;2022-12-10T16:26:31;11.68;;;6.60;;
38034;SDS011;23841;48.524;1.342;2022-12-10T16:28:56;11.95;;;6.45;;
38034;SDS011;23841;48.524;1.342;2022-12-10T16:31:22;11.05;;;6.60;;
38034;SDS011;23841;48.524;1.342;2022-12-10T16:33:47;14.43;;;6.43;;
38034;SDS011;23841;48.524;1.342;2022-12-10T16:36:16;12.30;;;7.05;;
38034;SDS011;23841;48.524;1.342;2022-12-10T16:38:43;11.57;;;7.00;;
38034;SDS011;23841;48.524;1.342;2022-12-10T16:41:18;13.40;;;7.30;;
38034;SDS011;23841;48.524;1.342;2022-12-10T16:43:45;11.90;;;6.60;;